Lovell, Maine
Current Conditions -  °F | °C
As of 8:54 PM on Friday 19 Dec 2014 (Local Time) from KIZG Reporting Station
Clear Clear  
Wind Chill: 21°   Ceiling: Unl
Heat Index: 21°   Visibility: 10mi
Dew Point: 18°   Wind: 0mph
Humidity: 88%   Direction: NA
Pressure: 30.09"   Gusts: NA
Location:  44.13°N, 70.89°W
Report Text: KIZG 200154Z AUTO 00000KT 10SM CLR M06/M08 A3009 RMK AO2 SLP196 I1000 T10611078 TSNO
Loading
Personal Weather Stations






























Interactive Weather Map New forecast layout! Learn more

10-Day Weather Forecast

Advertisements
Track Severe Weather on mobile